Time;durP1;ratioP1;P1;durP2;ratioP2;P2;SDS_P1;SDS_P2;PMS_P1;PMS_P2;Temp;Humidity;BMP_temperature;BMP_pressure;BME280_temperature;BME280_humidity;BME280_pressure;Samples;Min_cycle;Max_cycle;Signal;HPM_P1;HPM_P2
2022/04/05 00:00:11;;;;;;;6.88;3.72;;;;;;;;;;5130995;28;20057;-77
2022/04/05 00:02:37;;;;;;;7.65;4.07;;;;;;;;;;5129570;28;20376;-77
2022/04/05 00:05:02;;;;;;;7.75;3.80;;;;;;;;;;5131586;27;20057;-75
2022/04/05 00:07:27;;;;;;;9.63;4.22;;;;;;;;;;5131851;27;20019;-75
2022/04/05 00:09:52;;;;;;;8.60;4.30;;;;;;;;;;5116330;28;20523;-76
2022/04/05 00:12:20;;;;;;;9.13;4.22;;;;;;;;;;5115198;28;20031;-77
2022/04/05 00:14:46;;;;;;;8.35;3.75;;;;;;;;;;5115090;28;20028;-77
2022/04/05 00:17:11;;;;;;;7.40;3.95;;;;;;;;;;5115129;28;20033;-76
2022/04/05 00:19:36;;;;;;;5.63;3.70;;;;;;;;;;5114796;28;20094;-76
2022/04/05 00:22:01;;;;;;;7.18;3.72;;;;;;;;;;5128155;27;20063;-75
2022/04/05 00:24:27;;;;;;;8.18;3.70;;;;;;;;;;5135406;27;20467;-76
2022/04/05 00:26:52;;;;;;;7.63;4.20;;;;;;;;;;5135375;27;20011;-74
2022/04/05 00:29:19;;;;;;;5.60;4.00;;;;;;;;;;5135284;27;20379;-74
2022/04/05 00:31:44;;;;;;;5.40;3.28;;;;;;;;;;5135300;27;20055;-75
2022/04/05 00:34:10;;;;;;;7.70;4.40;;;;;;;;;;5133020;27;20057;-75
2022/04/05 00:36:35;;;;;;;6.57;3.60;;;;;;;;;;5134906;27;20069;-78
2022/04/05 00:39:00;;;;;;;6.88;3.75;;;;;;;;;;5134801;27;20417;-75
2022/04/05 00:41:26;;;;;;;6.45;3.70;;;;;;;;;;5135199;27;20022;-77
2022/04/05 00:43:51;;;;;;;8.45;3.40;;;;;;;;;;5135025;27;20023;-76
2022/04/05 00:46:16;;;;;;;6.80;3.92;;;;;;;;;;5134949;27;20525;-76
2022/04/05 00:48:49;;;;;;;5.47;3.50;;;;;;;;;;5134729;27;20027;-80
2022/04/05 00:51:15;;;;;;;6.40;3.65;;;;;;;;;;5134730;27;20034;-76
2022/04/05 00:53:41;;;;;;;6.63;3.80;;;;;;;;;;5135169;27;20368;-75
2022/04/05 00:56:07;;;;;;;5.85;3.67;;;;;;;;;;5132374;27;20023;-77
2022/04/05 00:58:32;;;;;;;6.18;3.45;;;;;;;;;;5143021;27;20020;-76
2022/04/05 01:00:58;;;;;;;6.95;3.22;;;;;;;;;;5139268;27;20098;-76
2022/04/05 01:03:24;;;;;;;7.00;3.83;;;;;;;;;;5136284;27;20042;-77
2022/04/05 01:05:50;;;;;;;6.82;3.90;;;;;;;;;;5137939;27;20020;-77
2022/04/05 01:08:17;;;;;;;6.15;3.70;;;;;;;;;;5134578;27;20015;-79
2022/04/05 01:10:42;;;;;;;6.22;3.97;;;;;;;;;;5134254;27;20055;-76
2022/04/05 01:13:08;;;;;;;5.82;3.88;;;;;;;;;;5134192;27;20054;-77
2022/04/05 01:15:33;;;;;;;8.88;4.53;;;;;;;;;;5132903;27;20072;-77
2022/04/05 01:18:00;;;;;;;7.15;4.53;;;;;;;;;;5133015;27;20042;-78
2022/04/05 01:20:25;;;;;;;8.02;4.43;;;;;;;;;;5134550;27;20368;-76
2022/04/05 01:22:51;;;;;;;7.63;3.97;;;;;;;;;;5133037;27;20019;-79
2022/04/05 01:25:17;;;;;;;7.60;4.10;;;;;;;;;;5133728;27;20098;-76
2022/04/05 01:27:43;;;;;;;8.35;4.20;;;;;;;;;;5134297;27;20011;-76
2022/04/05 01:30:09;;;;;;;7.78;4.00;;;;;;;;;;5134810;27;20027;-80
2022/04/05 01:32:35;;;;;;;8.25;4.32;;;;;;;;;;5133838;27;20035;-78
2022/04/05 01:35:00;;;;;;;6.78;4.20;;;;;;;;;;5129402;27;20015;-79
2022/04/05 01:37:25;;;;;;;6.82;3.90;;;;;;;;;;5113131;28;20126;-78
2022/04/05 01:39:51;;;;;;;7.85;4.20;;;;;;;;;;5118299;27;20038;-79
2022/04/05 01:42:17;;;;;;;7.38;4.63;;;;;;;;;;5133926;27;20023;-76
2022/04/05 01:44:43;;;;;;;7.38;4.45;;;;;;;;;;5133885;27;20524;-81
2022/04/05 01:47:10;;;;;;;7.47;4.15;;;;;;;;;;5134555;27;20098;-78
2022/04/05 01:49:36;;;;;;;9.10;5.03;;;;;;;;;;5134977;27;20102;-78
2022/04/05 01:52:01;;;;;;;8.70;5.00;;;;;;;;;;5135334;27;20015;-77
2022/04/05 01:54:27;;;;;;;9.80;4.68;;;;;;;;;;5133825;27;20015;-77
2022/04/05 01:56:52;;;;;;;10.68;4.22;;;;;;;;;;5133407;27;20499;-77
2022/04/05 01:59:19;;;;;;;6.75;4.25;;;;;;;;;;5136949;27;20023;-77
2022/04/05 02:01:45;;;;;;;8.27;4.30;;;;;;;;;;5122672;27;20485;-78
2022/04/05 02:04:10;;;;;;;9.05;4.72;;;;;;;;;;5112466;28;20051;-79
2022/04/05 02:06:37;;;;;;;14.82;4.80;;;;;;;;;;5112544;28;20027;-79
2022/04/05 02:09:02;;;;;;;9.52;4.63;;;;;;;;;;5112740;28;20030;-77
2022/04/05 02:11:27;;;;;;;8.07;4.78;;;;;;;;;;5117771;27;20446;-79
2022/04/05 02:13:53;;;;;;;17.23;7.82;;;;;;;;;;5132540;27;20084;-76
2022/04/05 02:16:18;;;;;;;16.00;9.18;;;;;;;;;;5132755;27;20134;-77
2022/04/05 02:18:44;;;;;;;16.45;9.57;;;;;;;;;;5133137;27;20042;-77
2022/04/05 02:21:10;;;;;;;16.02;9.15;;;;;;;;;;5133181;27;20019;-77
2022/04/05 02:23:35;;;;;;;12.85;8.45;;;;;;;;;;5132280;27;20090;-79
2022/04/05 02:26:01;;;;;;;16.27;8.20;;;;;;;;;;5132689;27;20019;-76
2022/04/05 02:28:26;;;;;;;11.65;8.10;;;;;;;;;;5133138;27;20015;-74
2022/04/05 02:30:52;;;;;;;15.73;8.23;;;;;;;;;;5133664;27;20391;-76
2022/04/05 02:33:17;;;;;;;12.80;8.07;;;;;;;;;;5133592;27;20458;-76
2022/04/05 02:35:43;;;;;;;12.02;7.95;;;;;;;;;;5133703;27;20110;-78
2022/04/05 02:38:08;;;;;;;15.27;8.93;;;;;;;;;;5132433;27;20039;-76
2022/04/05 02:40:33;;;;;;;16.30;8.32;;;;;;;;;;5132530;27;20023;-77
2022/04/05 02:42:58;;;;;;;14.52;8.95;;;;;;;;;;5132678;27;20026;-77
2022/04/05 02:45:24;;;;;;;15.20;8.35;;;;;;;;;;5132678;27;20505;-76
2022/04/05 02:47:49;;;;;;;13.10;8.02;;;;;;;;;;5117657;27;20030;-76
2022/04/05 02:50:17;;;;;;;16.38;8.70;;;;;;;;;;5112200;28;20095;-78
2022/04/05 02:52:44;;;;;;;14.30;8.23;;;;;;;;;;5111848;28;20031;-76
2022/04/05 02:55:10;;;;;;;18.40;9.80;;;;;;;;;;5115590;28;20008;-80
2022/04/05 02:57:36;;;;;;;16.75;8.85;;;;;;;;;;5111734;28;20034;-76
2022/04/05 03:00:02;;;;;;;15.15;9.23;;;;;;;;;;5111353;28;20043;-76
2022/04/05 03:02:27;;;;;;;19.63;9.70;;;;;;;;;;5110457;28;20027;-76
2022/04/05 03:04:54;;;;;;;22.38;9.57;;;;;;;;;;5111792;28;20019;-76
2022/04/05 03:07:20;;;;;;;19.83;9.00;;;;;;;;;;5112515;27;20019;-77
2022/04/05 03:09:45;;;;;;;16.35;9.38;;;;;;;;;;5115492;28;20026;-78
2022/04/05 03:12:10;;;;;;;17.70;9.00;;;;;;;;;;5119349;28;20030;-75
2022/04/05 03:14:35;;;;;;;15.98;9.07;;;;;;;;;;5111506;28;20024;-80
2022/04/05 03:17:01;;;;;;;17.63;9.35;;;;;;;;;;5111569;28;20023;-77
2022/04/05 03:19:26;;;;;;;19.80;10.10;;;;;;;;;;5111365;28;20144;-79
2022/04/05 03:21:51;;;;;;;17.55;9.30;;;;;;;;;;5111365;28;20030;-80
2022/04/05 03:24:16;;;;;;;18.05;9.85;;;;;;;;;;5119983;27;20079;-77
2022/04/05 03:26:42;;;;;;;16.60;9.93;;;;;;;;;;5113319;27;20092;-78
2022/04/05 03:29:07;;;;;;;18.25;9.32;;;;;;;;;;5114976;27;20090;-78
2022/04/05 03:31:32;;;;;;;15.10;8.85;;;;;;;;;;5131980;27;20027;-75
2022/04/05 03:33:57;;;;;;;16.75;9.95;;;;;;;;;;5131340;27;20011;-76
2022/04/05 03:36:23;;;;;;;22.02;10.30;;;;;;;;;;5131166;27;20023;-75
2022/04/05 03:38:48;;;;;;;20.30;9.88;;;;;;;;;;5131336;28;20029;-76
2022/04/05 03:41:13;;;;;;;20.02;10.98;;;;;;;;;;5127436;27;20027;-76
2022/04/05 03:43:38;;;;;;;16.27;10.35;;;;;;;;;;5116149;28;20030;-76
2022/04/05 03:46:04;;;;;;;20.25;10.38;;;;;;;;;;5130957;28;20027;-78
2022/04/05 03:48:29;;;;;;;20.20;10.00;;;;;;;;;;5132490;27;20015;-77
2022/04/05 03:50:54;;;;;;;18.27;10.93;;;;;;;;;;5121668;28;20058;-77
2022/04/05 03:53:19;;;;;;;17.65;9.63;;;;;;;;;;5117636;28;20496;-75
2022/04/05 03:55:45;;;;;;;22.27;11.40;;;;;;;;;;5125723;28;20056;-74
2022/04/05 03:58:12;;;;;;;20.80;11.48;;;;;;;;;;5110150;28;20027;-78
2022/04/05 04:00:38;;;;;;;20.50;11.43;;;;;;;;;;5121366;28;20476;-76
2022/04/05 04:03:04;;;;;;;19.35;11.18;;;;;;;;;;5112143;27;20024;-75
2022/04/05 04:05:29;;;;;;;20.85;11.05;;;;;;;;;;5130217;28;20410;-76
2022/04/05 04:07:54;;;;;;;21.42;10.02;;;;;;;;;;5130795;27;20033;-76
2022/04/05 04:10:19;;;;;;;17.00;9.80;;;;;;;;;;5121549;28;20016;-77
2022/04/05 04:12:45;;;;;;;18.08;10.77;;;;;;;;;;5110673;28;20260;-78
2022/04/05 04:15:10;;;;;;;19.92;9.90;;;;;;;;;;5109908;28;20523;-75
2022/04/05 04:17:35;;;;;;;15.40;9.65;;;;;;;;;;5109841;28;20097;-76
2022/04/05 04:20:00;;;;;;;18.52;9.75;;;;;;;;;;5110676;28;20051;-75
2022/04/05 04:22:27;;;;;;;16.75;10.38;;;;;;;;;;5127312;28;20015;-78
2022/04/05 04:24:52;;;;;;;20.65;9.82;;;;;;;;;;5109681;28;20061;-75
2022/04/05 04:27:18;;;;;;;21.05;10.90;;;;;;;;;;5109697;28;20019;-76
2022/04/05 04:29:43;;;;;;;25.25;11.07;;;;;;;;;;5110159;28;20016;-77
2022/04/05 04:32:08;;;;;;;18.83;11.55;;;;;;;;;;5119404;28;20023;-77
2022/04/05 04:34:33;;;;;;;21.38;12.00;;;;;;;;;;5128979;28;20021;-78
2022/04/05 04:36:59;;;;;;;23.88;10.98;;;;;;;;;;5120499;28;20035;-77
2022/04/05 04:39:25;;;;;;;18.75;10.00;;;;;;;;;;5118377;28;20034;-76
2022/04/05 04:41:50;;;;;;;18.10;10.23;;;;;;;;;;5119547;28;20026;-77
2022/04/05 04:44:15;;;;;;;19.38;11.05;;;;;;;;;;5119022;28;20442;-77
2022/04/05 04:46:43;;;;;;;20.70;10.20;;;;;;;;;;5123148;28;20019;-78
2022/04/05 04:49:08;;;;;;;29.55;10.32;;;;;;;;;;5119353;28;20483;-75
2022/04/05 04:51:34;;;;;;;17.90;9.95;;;;;;;;;;5121339;27;20026;-74
2022/04/05 04:53:59;;;;;;;16.85;9.18;;;;;;;;;;5134498;27;20391;-76
2022/04/05 04:56:24;;;;;;;17.00;9.65;;;;;;;;;;5123143;27;20018;-75
2022/04/05 04:58:50;;;;;;;19.45;10.13;;;;;;;;;;5121277;27;20023;-76
2022/04/05 05:01:15;;;;;;;26.20;11.75;;;;;;;;;;5124238;27;20388;-76
2022/04/05 05:03:40;;;;;;;26.17;10.27;;;;;;;;;;5120168;27;20487;-76
2022/04/05 05:06:06;;;;;;;21.58;10.10;;;;;;;;;;5119004;27;20027;-77
2022/04/05 05:08:32;;;;;;;23.33;11.20;;;;;;;;;;5125925;27;20065;-79
2022/04/05 05:10:57;;;;;;;22.00;11.18;;;;;;;;;;5134273;27;20023;-76
2022/04/05 05:13:22;;;;;;;20.75;12.20;;;;;;;;;;5128965;27;20014;-77
2022/04/05 05:15:48;;;;;;;21.77;11.70;;;;;;;;;;5123223;27;20135;-80
2022/04/05 05:18:13;;;;;;;20.05;11.93;;;;;;;;;;5121092;27;20031;-74
2022/04/05 05:20:38;;;;;;;23.08;10.73;;;;;;;;;;5123117;27;20022;-81
2022/04/05 05:23:04;;;;;;;18.65;11.02;;;;;;;;;;5130576;27;20015;-82
2022/04/05 05:25:29;;;;;;;27.08;11.50;;;;;;;;;;5127284;27;20027;-75
2022/04/05 05:27:55;;;;;;;18.23;11.30;;;;;;;;;;5120153;27;20034;-72
2022/04/05 05:30:22;;;;;;;21.35;10.70;;;;;;;;;;5120036;27;20020;-71
2022/04/05 05:32:51;;;;;;;33.08;14.38;;;;;;;;;;5119912;27;20130;-75
2022/04/05 05:35:20;;;;;;;26.83;12.77;;;;;;;;;;5126069;27;20007;-75
2022/04/05 05:37:46;;;;;;;22.98;10.88;;;;;;;;;;5123689;27;20110;-77
2022/04/05 05:40:11;;;;;;;31.35;15.05;;;;;;;;;;5125107;27;20039;-76
2022/04/05 05:42:53;;;;;;;35.05;14.90;;;;;;;;;;5118609;27;20034;-74
2022/04/05 05:45:19;;;;;;;26.90;13.45;;;;;;;;;;5111132;28;20023;-75
2022/04/05 05:47:45;;;;;;;24.95;11.55;;;;;;;;;;5119648;27;20488;-77
2022/04/05 05:50:12;;;;;;;20.85;11.18;;;;;;;;;;5119374;27;20020;-78
2022/04/05 05:52:38;;;;;;;17.25;10.02;;;;;;;;;;5128631;27;20915;-75
2022/04/05 05:55:03;;;;;;;18.77;10.43;;;;;;;;;;5132762;27;20019;-75
2022/04/05 05:57:29;;;;;;;18.25;9.85;;;;;;;;;;5131046;27;20035;-77
2022/04/05 05:59:54;;;;;;;16.08;9.32;;;;;;;;;;5124941;27;20577;-74
2022/04/05 06:02:19;;;;;;;19.48;10.35;;;;;;;;;;5118697;27;20053;-74
2022/04/05 06:04:44;;;;;;;23.17;10.27;;;;;;;;;;5119960;27;20015;-74
2022/04/05 06:07:10;;;;;;;21.55;9.68;;;;;;;;;;5118513;27;20148;-76
2022/04/05 06:09:35;;;;;;;19.10;10.40;;;;;;;;;;5110195;28;20004;-76
2022/04/05 06:12:00;;;;;;;24.33;10.73;;;;;;;;;;5111531;28;20024;-77
2022/04/05 06:14:25;;;;;;;16.67;9.50;;;;;;;;;;5112995;27;20098;-77
2022/04/05 06:16:50;;;;;;;18.10;10.15;;;;;;;;;;5122261;27;20031;-76
2022/04/05 06:19:16;;;;;;;17.13;9.63;;;;;;;;;;5123557;27;20012;-75
2022/04/05 06:21:41;;;;;;;30.85;13.82;;;;;;;;;;5111937;28;20466;-74
2022/04/05 06:24:06;;;;;;;24.50;13.18;;;;;;;;;;5111627;27;20576;-72
2022/04/05 06:26:31;;;;;;;24.90;12.20;;;;;;;;;;5121354;27;20031;-73
2022/04/05 06:28:57;;;;;;;22.02;11.32;;;;;;;;;;5128977;27;20038;-73
2022/04/05 06:31:23;;;;;;;21.63;10.63;;;;;;;;;;5122309;27;20102;-73
2022/04/05 06:33:48;;;;;;;24.45;10.60;;;;;;;;;;5118500;27;20030;-72
2022/04/05 06:36:13;;;;;;;22.33;10.70;;;;;;;;;;5116504;27;20147;-72
2022/04/05 06:38:39;;;;;;;46.90;21.63;;;;;;;;;;5120036;27;20034;-72
2022/04/05 06:41:04;;;;;;;33.47;14.40;;;;;;;;;;5118948;27;20027;-74
2022/04/05 06:43:30;;;;;;;91.25;41.05;;;;;;;;;;5112539;27;20030;-72
2022/04/05 06:45:55;;;;;;;32.60;16.13;;;;;;;;;;5119284;27;20035;-72
2022/04/05 06:48:20;;;;;;;27.45;14.60;;;;;;;;;;5119622;27;20022;-71
2022/04/05 06:50:46;;;;;;;34.95;16.20;;;;;;;;;;5123726;27;20007;-73
2022/04/05 06:53:12;;;;;;;32.58;17.38;;;;;;;;;;5120912;27;20034;-73
2022/04/05 06:55:37;;;;;;;36.20;19.77;;;;;;;;;;5118616;27;20464;-73
2022/04/05 06:58:02;;;;;;;32.67;17.52;;;;;;;;;;5120644;27;20027;-73
2022/04/05 07:00:28;;;;;;;21.55;12.40;;;;;;;;;;5118973;27;20019;-73
2022/04/05 07:02:54;;;;;;;27.40;16.35;;;;;;;;;;5119592;27;20061;-73
2022/04/05 07:05:19;;;;;;;26.00;12.52;;;;;;;;;;5117714;27;20019;-72
2022/04/05 07:07:45;;;;;;;24.80;11.55;;;;;;;;;;5118416;27;20032;-72
2022/04/05 07:10:11;;;;;;;21.77;12.00;;;;;;;;;;5119624;27;20114;-73
2022/04/05 07:12:37;;;;;;;26.95;12.70;;;;;;;;;;5118408;27;20494;-73
2022/04/05 07:15:02;;;;;;;29.15;11.35;;;;;;;;;;5119963;27;20048;-73
2022/04/05 07:17:28;;;;;;;31.92;12.05;;;;;;;;;;5109814;28;20038;-73
2022/04/05 07:19:53;;;;;;;24.70;10.20;;;;;;;;;;5109859;28;20130;-72
2022/04/05 07:22:19;;;;;;;26.38;11.23;;;;;;;;;;5109777;28;20024;-73
2022/04/05 07:24:45;;;;;;;26.98;11.45;;;;;;;;;;5109628;28;20472;-73
2022/04/05 07:27:11;;;;;;;28.30;11.75;;;;;;;;;;5113223;27;20066;-73
2022/04/05 07:29:36;;;;;;;22.38;12.05;;;;;;;;;;5120798;27;20357;-73
2022/04/05 07:32:01;;;;;;;22.50;14.13;;;;;;;;;;5128688;27;20023;-78
2022/04/05 07:34:27;;;;;;;21.58;15.07;;;;;;;;;;5131265;27;20019;-74
2022/04/05 07:36:52;;;;;;;22.02;15.30;;;;;;;;;;5131656;27;20437;-71
2022/04/05 07:39:19;;;;;;;24.50;15.48;;;;;;;;;;5129835;27;20418;-73
2022/04/05 07:41:44;;;;;;;21.50;15.05;;;;;;;;;;5130805;27;20114;-73
2022/04/05 07:44:10;;;;;;;18.92;13.77;;;;;;;;;;5130693;27;20106;-73
2022/04/05 07:46:35;;;;;;;19.90;14.40;;;;;;;;;;5130141;28;20118;-73
2022/04/05 07:49:00;;;;;;;18.25;13.75;;;;;;;;;;5130808;27;20027;-73
2022/04/05 07:51:27;;;;;;;22.85;14.05;;;;;;;;;;5130708;28;20092;-74
2022/04/05 07:53:52;;;;;;;18.77;15.07;;;;;;;;;;5129370;28;20023;-74
2022/04/05 07:56:17;;;;;;;20.17;15.68;;;;;;;;;;5129365;28;20441;-74
2022/04/05 07:58:43;;;;;;;18.85;14.68;;;;;;;;;;5130765;28;20054;-74
2022/04/05 08:01:09;;;;;;;22.65;15.43;;;;;;;;;;5130925;28;20512;-74
2022/04/05 08:03:34;;;;;;;22.48;14.93;;;;;;;;;;5130298;28;20015;-74
2022/04/05 08:06:00;;;;;;;19.03;14.70;;;;;;;;;;5129567;28;20023;-74
2022/04/05 08:08:25;;;;;;;17.58;14.60;;;;;;;;;;5130572;27;20283;-74
2022/04/05 08:10:51;;;;;;;24.30;15.48;;;;;;;;;;5130506;28;20030;-74
2022/04/05 08:13:16;;;;;;;19.75;14.50;;;;;;;;;;5130753;28;20071;-74
2022/04/05 08:15:43;;;;;;;16.67;14.47;;;;;;;;;;5130188;28;20507;-74
2022/04/05 08:18:11;;;;;;;18.30;13.93;;;;;;;;;;5129148;28;20290;-74
2022/04/05 08:20:39;;;;;;;17.13;13.65;;;;;;;;;;5129212;28;20047;-74
2022/04/05 08:23:04;;;;;;;15.50;13.35;;;;;;;;;;5130349;27;20031;-74
2022/04/05 08:25:29;;;;;;;16.88;13.57;;;;;;;;;;5133289;27;20044;-74
2022/04/05 08:27:55;;;;;;;17.65;15.23;;;;;;;;;;5134363;27;20122;-74
2022/04/05 08:30:20;;;;;;;16.73;14.32;;;;;;;;;;5134417;27;20075;-71
2022/04/05 08:32:46;;;;;;;18.98;15.02;;;;;;;;;;5134788;27;20487;-71
2022/04/05 08:35:13;;;;;;;18.80;15.00;;;;;;;;;;5134557;27;20023;-72
2022/04/05 08:37:38;;;;;;;19.40;14.20;;;;;;;;;;5134025;27;20019;-72
2022/04/05 08:40:06;;;;;;;21.15;14.73;;;;;;;;;;5134366;27;20016;-72
2022/04/05 08:42:35;;;;;;;16.02;13.43;;;;;;;;;;5133311;27;20023;-72
2022/04/05 08:45:04;;;;;;;17.75;14.05;;;;;;;;;;5134094;27;20027;-72
2022/04/05 08:47:30;;;;;;;17.17;13.63;;;;;;;;;;5132574;27;20118;-72
2022/04/05 08:49:56;;;;;;;15.35;13.48;;;;;;;;;;5132588;27;20102;-73
2022/04/05 08:52:22;;;;;;;18.80;14.40;;;;;;;;;;5128976;27;20055;-72
2022/04/05 08:54:47;;;;;;;20.63;14.63;;;;;;;;;;5121948;27;20046;-72
2022/04/05 08:57:12;;;;;;;19.52;14.50;;;;;;;;;;5124934;27;20076;-73
2022/04/05 08:59:37;;;;;;;16.67;13.88;;;;;;;;;;5113785;27;20035;-74
2022/04/05 09:02:03;;;;;;;22.85;14.52;;;;;;;;;;5124319;27;20026;-73
2022/04/05 09:04:34;;;;;;;15.38;13.75;;;;;;;;;;5121945;27;20020;-74
2022/04/05 09:07:17;;;;;;;23.33;14.65;;;;;;;;;;5122039;27;20122;-73
2022/04/05 09:09:42;;;;;;;20.05;14.18;;;;;;;;;;5123004;27;20051;-73
2022/04/05 09:12:15;;;;;;;18.17;14.43;;;;;;;;;;5121223;27;20055;-74
2022/04/05 09:14:41;;;;;;;16.90;14.35;;;;;;;;;;5120032;27;20266;-73
2022/04/05 09:17:08;;;;;;;14.65;12.50;;;;;;;;;;5123146;27;20379;-74
2022/04/05 09:19:42;;;;;;;19.25;13.80;;;;;;;;;;5124704;27;20038;-73
2022/04/05 09:22:07;;;;;;;15.27;12.27;;;;;;;;;;5123246;27;20023;-72
2022/04/05 09:24:33;;;;;;;15.40;11.43;;;;;;;;;;5121401;27;20018;-73
2022/04/05 09:26:59;;;;;;;14.20;10.98;;;;;;;;;;5121536;27;20023;-73
2022/04/05 09:29:36;;;;;;;17.53;12.57;;;;;;;;;;5124534;27;20023;-73
2022/04/05 09:32:01;;;;;;;16.35;12.82;;;;;;;;;;5123856;27;20030;-74
2022/04/05 09:34:26;;;;;;;17.65;13.82;;;;;;;;;;5123305;27;20015;-74
2022/04/05 09:36:52;;;;;;;17.67;13.13;;;;;;;;;;5121959;27;20077;-74
2022/04/05 09:39:17;;;;;;;18.13;13.30;;;;;;;;;;5122655;27;20267;-75
2022/04/05 09:42:05;;;;;;;17.50;13.05;;;;;;;;;;5127391;27;20264;-74
2022/04/05 09:44:35;;;;;;;17.67;13.10;;;;;;;;;;5123250;27;20476;-74
2022/04/05 09:47:04;;;;;;;16.25;12.80;;;;;;;;;;5123795;27;20023;-74
2022/04/05 09:49:30;;;;;;;17.75;14.20;;;;;;;;;;5120695;27;20068;-73
2022/04/05 09:51:55;;;;;;;16.88;14.38;;;;;;;;;;5118109;27;20102;-74
2022/04/05 09:54:28;;;;;;;17.67;14.30;;;;;;;;;;5114837;27;20126;-75
2022/04/05 09:56:59;;;;;;;19.15;14.57;;;;;;;;;;5113569;27;20076;-73
2022/04/05 09:59:25;;;;;;;17.38;14.32;;;;;;;;;;5112868;27;20050;-74
2022/04/05 10:01:52;;;;;;;17.37;12.80;;;;;;;;;;5123832;27;20054;-73
2022/04/05 10:04:18;;;;;;;16.33;13.75;;;;;;;;;;5116858;27;20264;-73
2022/04/05 10:06:46;;;;;;;16.23;13.25;;;;;;;;;;5119644;27;20438;-74
2022/04/05 10:09:12;;;;;;;16.17;12.35;;;;;;;;;;5123280;27;20020;-73
2022/04/05 10:11:38;;;;;;;18.88;15.15;;;;;;;;;;5124020;27;20468;-75
2022/04/05 10:14:03;;;;;;;16.80;15.00;;;;;;;;;;5123055;27;20043;-74
2022/04/05 10:16:30;;;;;;;16.88;14.07;;;;;;;;;;5121950;27;20105;-74
2022/04/05 10:18:57;;;;;;;19.83;14.77;;;;;;;;;;5120234;27;20024;-74
2022/04/05 10:21:24;;;;;;;17.90;14.38;;;;;;;;;;5119632;27;20094;-74
2022/04/05 10:23:50;;;;;;;17.08;13.68;;;;;;;;;;5123249;27;20042;-76
2022/04/05 10:26:18;;;;;;;15.63;13.93;;;;;;;;;;5120935;27;20050;-74
2022/04/05 10:28:45;;;;;;;18.58;13.73;;;;;;;;;;5120304;27;20364;-74
2022/04/05 10:31:32;;;;;;;15.38;13.10;;;;;;;;;;5123308;27;20087;-75
2022/04/05 10:34:00;;;;;;;17.30;14.45;;;;;;;;;;5117428;27;20133;-73
2022/04/05 10:36:26;;;;;;;17.90;14.63;;;;;;;;;;5115668;27;20366;-72
2022/04/05 10:39:10;;;;;;;17.60;13.43;;;;;;;;;;5116350;27;20042;-74
2022/04/05 10:41:35;;;;;;;15.50;13.25;;;;;;;;;;5126801;27;20027;-73
2022/04/05 10:44:30;;;;;;;18.07;13.50;;;;;;;;;;5130590;27;20022;-73
2022/04/05 10:47:01;;;;;;;17.25;12.98;;;;;;;;;;5113161;27;20114;-72
2022/04/05 10:49:54;;;;;;;15.88;12.88;;;;;;;;;;5132386;27;20050;-72
2022/04/05 10:52:27;;;;;;;18.95;13.95;;;;;;;;;;5128793;27;20034;-73
2022/04/05 10:55:05;;;;;;;14.13;12.57;;;;;;;;;;5130535;27;20038;-73
2022/04/05 10:57:34;;;;;;;16.73;12.90;;;;;;;;;;5130163;27;20019;-74
2022/04/05 11:00:07;;;;;;;16.30;13.07;;;;;;;;;;5130433;27;20051;-73
2022/04/05 11:02:35;;;;;;;19.60;14.98;;;;;;;;;;5131312;27;20003;-73
2022/04/05 11:05:18;;;;;;;17.95;13.85;;;;;;;;;;5131370;27;20019;-73
2022/04/05 11:07:59;;;;;;;18.00;13.75;;;;;;;;;;5130745;27;20014;-73
2022/04/05 11:10:30;;;;;;;20.02;13.95;;;;;;;;;;5121698;27;20476;-72
2022/04/05 11:13:14;;;;;;;17.50;14.07;;;;;;;;;;5123633;27;20019;-72
2022/04/05 11:15:40;;;;;;;18.83;13.25;;;;;;;;;;5131060;27;20049;-72
2022/04/05 11:18:06;;;;;;;17.63;13.55;;;;;;;;;;5130814;27;20023;-73
2022/04/05 11:20:34;;;;;;;16.88;12.13;;;;;;;;;;5130329;27;20492;-72
2022/04/05 11:23:02;;;;;;;15.27;13.00;;;;;;;;;;5127710;27;20790;-72
2022/04/05 11:25:29;;;;;;;16.50;13.65;;;;;;;;;;5121319;27;20494;-71
2022/04/05 11:27:55;;;;;;;18.27;13.48;;;;;;;;;;5118859;27;20019;-73
2022/04/05 11:30:21;;;;;;;17.95;11.93;;;;;;;;;;5110712;28;20019;-71
2022/04/05 11:33:05;;;;;;;18.13;12.32;;;;;;;;;;5110663;28;20020;-72
2022/04/05 11:35:33;;;;;;;19.13;13.65;;;;;;;;;;5110865;28;20551;-72
2022/04/05 11:37:58;;;;;;;16.10;12.60;;;;;;;;;;5109412;28;20095;-74
2022/04/05 11:40:24;;;;;;;21.27;14.37;;;;;;;;;;5110756;28;20027;-73
2022/04/05 11:42:49;;;;;;;18.60;13.45;;;;;;;;;;5111725;28;20248;-73
2022/04/05 11:45:15;;;;;;;16.80;14.00;;;;;;;;;;5121822;28;20387;-74
2022/04/05 11:47:41;;;;;;;16.23;12.63;;;;;;;;;;5121457;28;20027;-73
2022/04/05 11:50:07;;;;;;;17.53;13.47;;;;;;;;;;5117892;28;20015;-72
2022/04/05 11:52:32;;;;;;;15.48;12.15;;;;;;;;;;5119204;28;20665;-73
2022/04/05 11:57:44;;;;;;;18.92;12.77;;;;;;;;;;5121358;28;20091;-73
2022/04/05 12:00:10;;;;;;;16.25;11.52;;;;;;;;;;5113720;27;20053;-74
2022/04/05 12:02:35;;;;;;;16.92;13.02;;;;;;;;;;5117447;27;20507;-73
2022/04/05 12:05:01;;;;;;;18.77;13.88;;;;;;;;;;5124703;27;20042;-71
2022/04/05 12:07:30;;;;;;;15.95;12.35;;;;;;;;;;5126001;27;20035;-73
2022/04/05 12:09:56;;;;;;;18.25;12.63;;;;;;;;;;5122594;27;20105;-71
2022/04/05 12:12:24;;;;;;;17.63;13.20;;;;;;;;;;5119423;27;20146;-72
2022/04/05 12:14:49;;;;;;;21.02;14.20;;;;;;;;;;5121639;27;20027;-72
2022/04/05 12:17:15;;;;;;;16.35;12.45;;;;;;;;;;5113230;27;20096;-72
2022/04/05 12:19:41;;;;;;;15.95;12.15;;;;;;;;;;5118213;27;20022;-72
2022/04/05 12:22:11;;;;;;;14.38;11.63;;;;;;;;;;5120968;27;20023;-72
2022/04/05 12:24:42;;;;;;;15.65;12.52;;;;;;;;;;5121291;27;20468;-71
2022/04/05 12:27:08;;;;;;;16.42;11.95;;;;;;;;;;5128211;27;20020;-71
2022/04/05 12:29:39;;;;;;;15.10;11.90;;;;;;;;;;5117987;27;20023;-71
2022/04/05 12:32:05;;;;;;;15.68;12.13;;;;;;;;;;5114967;27;20138;-72
2022/04/05 12:34:31;;;;;;;16.55;12.27;;;;;;;;;;5120781;27;20024;-72
2022/04/05 12:36:57;;;;;;;16.70;12.45;;;;;;;;;;5119571;27;20060;-73
2022/04/05 12:39:27;;;;;;;15.82;12.20;;;;;;;;;;5120754;27;20023;-72
2022/04/05 12:42:12;;;;;;;17.38;13.00;;;;;;;;;;5116948;27;20015;-72
2022/04/05 12:44:38;;;;;;;17.60;12.25;;;;;;;;;;5115930;27;20066;-72
2022/04/05 12:47:14;;;;;;;17.67;13.57;;;;;;;;;;5117507;27;20019;-73
2022/04/05 12:49:41;;;;;;;15.25;12.10;;;;;;;;;;5115148;27;20023;-72
2022/04/05 12:52:06;;;;;;;16.48;12.10;;;;;;;;;;5117889;27;20409;-73
2022/04/05 12:54:32;;;;;;;16.70;11.75;;;;;;;;;;5118196;27;20027;-73
2022/04/05 12:57:16;;;;;;;18.15;12.52;;;;;;;;;;5120629;27;20065;-73
2022/04/05 12:59:41;;;;;;;16.40;11.63;;;;;;;;;;5115976;27;20472;-73
2022/04/05 13:02:14;;;;;;;16.00;12.70;;;;;;;;;;5117926;27;20027;-72
2022/04/05 13:04:40;;;;;;;17.40;13.52;;;;;;;;;;5121287;27;20057;-73
2022/04/05 13:07:05;;;;;;;16.80;12.32;;;;;;;;;;5120111;27;20012;-77
2022/04/05 13:09:30;;;;;;;18.00;11.95;;;;;;;;;;5120153;27;20376;-76
2022/04/05 13:12:09;;;;;;;16.87;11.57;;;;;;;;;;5120896;27;20113;-77
2022/04/05 13:14:34;;;;;;;15.25;11.40;;;;;;;;;;5120059;27;20255;-76
2022/04/05 13:17:00;;;;;;;14.38;11.43;;;;;;;;;;5118637;27;20035;-80
2022/04/05 13:19:25;;;;;;;15.85;11.65;;;;;;;;;;5120963;27;20686;-77
2022/04/05 13:21:51;;;;;;;16.00;11.73;;;;;;;;;;5120765;27;20065;-78
2022/04/05 13:24:18;;;;;;;16.15;11.43;;;;;;;;;;5120689;27;20016;-74
2022/04/05 13:26:44;;;;;;;15.27;11.60;;;;;;;;;;5120484;27;20021;-78
2022/04/05 13:29:10;;;;;;;17.75;11.57;;;;;;;;;;5119623;27;20018;-76
2022/04/05 13:31:54;;;;;;;16.02;12.40;;;;;;;;;;5121423;27;20026;-74
2022/04/05 13:34:20;;;;;;;20.30;12.50;;;;;;;;;;5114221;27;20023;-76
2022/04/05 13:36:46;;;;;;;16.95;11.10;;;;;;;;;;5123598;27;20465;-76
2022/04/05 13:39:12;;;;;;;16.17;11.35;;;;;;;;;;5118978;27;20048;-77
2022/04/05 13:41:37;;;;;;;16.25;10.65;;;;;;;;;;5118438;27;20019;-77
2022/04/05 13:44:03;;;;;;;14.90;10.95;;;;;;;;;;5120719;27;20468;-76
2022/04/05 13:46:31;;;;;;;15.88;11.63;;;;;;;;;;5126089;27;20026;-75
2022/04/05 13:48:56;;;;;;;18.17;12.32;;;;;;;;;;5121352;27;20071;-76
2022/04/05 13:51:22;;;;;;;17.33;11.93;;;;;;;;;;5123953;27;20467;-76
2022/04/05 13:53:48;;;;;;;14.23;11.20;;;;;;;;;;5121874;27;20267;-80
2022/04/05 13:56:13;;;;;;;16.75;10.88;;;;;;;;;;5120265;28;20023;-77
2022/04/05 13:58:38;;;;;;;17.38;10.75;;;;;;;;;;5119831;27;20593;-79
2022/04/05 14:01:04;;;;;;;16.08;11.63;;;;;;;;;;5122944;27;20031;-85
2022/04/05 14:03:30;;;;;;;17.02;11.52;;;;;;;;;;5120018;27;20031;-83
2022/04/05 14:05:55;;;;;;;17.70;11.45;;;;;;;;;;5117349;28;20052;-78
2022/04/05 14:08:21;;;;;;;16.43;11.13;;;;;;;;;;5117110;27;20027;-85
2022/04/05 14:10:46;;;;;;;17.67;11.35;;;;;;;;;;5129808;27;20264;-86
2022/04/05 14:13:11;;;;;;;15.07;10.90;;;;;;;;;;5117841;27;20041;-79
2022/04/05 14:15:36;;;;;;;14.68;10.60;;;;;;;;;;5120007;27;20283;-82
2022/04/05 14:18:02;;;;;;;19.75;11.82;;;;;;;;;;5120176;27;20084;-83
2022/04/05 14:20:27;;;;;;;14.57;11.65;;;;;;;;;;5123157;27;20063;-85
2022/04/05 14:22:52;;;;;;;15.10;11.47;;;;;;;;;;5122570;27;20019;-78